Time;durP1;ratioP1;P1;durP2;ratioP2;P2;SDS_P1;SDS_P2;PMS_P1;PMS_P2;Temp;Humidity;BMP_temperature;BMP_pressure;BME280_temperature;BME280_humidity;BME280_pressure;Samples;Min_cycle;Max_cycle;Signal;HPM_P1;HPM_P2
2021/09/22 00:00:53;;;;;;;19.02;9.73;;;;;;;8.21;100.00;103005.97;5205134;28;20020;-72
2021/09/22 00:03:23;;;;;;;19.35;9.05;;;;;;;8.18;100.00;103007.06;5210659;28;20030;-72
2021/09/22 00:05:54;;;;;;;18.27;9.30;;;;;;;8.15;100.00;103004.56;5215143;28;20467;-71
2021/09/22 00:08:24;;;;;;;21.45;10.10;;;;;;;8.14;100.00;103005.53;5201314;28;20053;-72
2021/09/22 00:10:55;;;;;;;21.23;10.27;;;;;;;8.15;100.00;103003.72;5214311;28;20095;-72
2021/09/22 00:13:26;;;;;;;21.33;9.65;;;;;;;8.12;100.00;103010.09;5214408;28;20609;-73
2021/09/22 00:15:56;;;;;;;22.58;10.38;;;;;;;8.11;100.00;103010.19;5215045;28;20032;-72
2021/09/22 00:18:27;;;;;;;19.00;10.05;;;;;;;8.09;100.00;102996.94;5214607;28;20355;-71
2021/09/22 00:20:57;;;;;;;19.75;10.07;;;;;;;8.05;100.00;103001.63;5209820;28;20096;-71
2021/09/22 00:23:28;;;;;;;19.52;9.90;;;;;;;8.02;100.00;103001.78;5208012;28;20493;-72
2021/09/22 00:25:58;;;;;;;18.92;9.48;;;;;;;8.01;100.00;103002.75;5212383;28;20438;-71
2021/09/22 00:28:29;;;;;;;18.52;8.90;;;;;;;8.00;100.00;103001.03;5217992;28;20035;-72
2021/09/22 00:30:59;;;;;;;50.45;8.70;;;;;;;7.98;100.00;102997.63;5221988;28;20052;-71
2021/09/22 00:33:30;;;;;;;17.60;7.70;;;;;;;7.94;100.00;102997.91;5207856;28;20504;-71
2021/09/22 00:36:01;;;;;;;15.90;8.68;;;;;;;7.91;100.00;102998.94;5221412;28;20031;-72
2021/09/22 00:38:32;;;;;;;17.23;9.00;;;;;;;7.90;100.00;102997.25;5207555;28;20028;-73
2021/09/22 00:41:03;;;;;;;16.20;9.25;;;;;;;7.91;100.00;103006.13;5215748;28;20010;-71
2021/09/22 00:43:33;;;;;;;11.80;6.72;;;;;;;7.90;100.00;103009.75;5208810;28;20035;-72
2021/09/22 00:46:04;;;;;;;13.82;8.27;;;;;;;7.85;100.00;103010.03;5205552;28;20029;-71
2021/09/22 00:48:35;;;;;;;20.30;9.45;;;;;;;7.82;100.00;103018.22;5209860;28;20406;-71
2021/09/22 00:51:08;;;;;;;16.50;9.10;;;;;;;7.78;100.00;103016.69;5203627;28;20080;-72
2021/09/22 00:53:38;;;;;;;19.13;9.65;;;;;;;7.77;100.00;103014.97;5211156;28;20025;-71
2021/09/22 00:56:09;;;;;;;17.90;8.98;;;;;;;7.76;100.00;103021.28;5203450;28;20079;-72
2021/09/22 00:58:40;;;;;;;19.65;9.52;;;;;;;7.77;100.00;103017.66;5212402;28;20032;-71
2021/09/22 01:01:10;;;;;;;17.85;10.00;;;;;;;7.76;100.00;103023.97;5202557;28;20108;-71
2021/09/22 01:03:41;;;;;;;21.83;10.35;;;;;;;7.73;100.00;103032.16;5220808;28;20064;-71
2021/09/22 01:06:15;;;;;;;15.07;7.95;;;;;;;7.69;100.00;103026.16;5208047;28;20537;-72
2021/09/22 01:08:45;;;;;;;30.35;8.05;;;;;;;7.60;100.00;103023.19;5219093;28;20028;-72
2021/09/22 01:11:16;;;;;;;16.42;7.35;;;;;;;7.50;100.00;103021.06;5209279;28;20032;-72
2021/09/22 01:13:46;;;;;;;18.08;8.38;;;;;;;7.43;100.00;103019.75;5217952;28;20387;-72
2021/09/22 01:16:17;;;;;;;18.40;9.18;;;;;;;7.42;100.00;103025.16;5210964;28;20017;-71
2021/09/22 01:18:48;;;;;;;25.15;9.93;;;;;;;7.41;100.00;103026.97;5203069;28;20025;-71
2021/09/22 01:21:20;;;;;;;18.80;9.63;;;;;;;7.40;100.00;103021.72;5212021;28;20063;-71
2021/09/22 01:23:51;;;;;;;20.50;8.45;;;;;;;7.37;100.00;103016.56;5214642;28;20094;-71
2021/09/22 01:26:21;;;;;;;18.98;9.18;;;;;;;7.36;100.00;103025.53;5213214;28;20029;-71
2021/09/22 01:28:52;;;;;;;18.60;10.15;;;;;;;7.35;100.00;103019.34;5207499;28;20421;-71
2021/09/22 01:31:22;;;;;;;22.42;10.48;;;;;;;7.35;100.00;103021.16;5219505;28;20021;-72
2021/09/22 01:33:53;;;;;;;21.83;9.23;;;;;;;7.33;100.00;103026.59;5199634;28;20024;-72
2021/09/22 01:36:23;;;;;;;21.75;11.35;;;;;;;7.32;100.00;103016.84;5201668;28;20025;-72
2021/09/22 01:38:54;;;;;;;18.95;9.10;;;;;;;7.32;100.00;103021.31;5220480;28;20104;-71
2021/09/22 01:41:25;;;;;;;18.02;8.98;;;;;;;7.31;100.00;103017.78;5217486;28;20079;-71
2021/09/22 01:43:57;;;;;;;17.15;9.63;;;;;;;7.31;100.00;103009.78;5210469;28;20039;-71
2021/09/22 01:46:28;;;;;;;16.80;7.97;;;;;;;7.29;100.00;103011.69;5207472;28;20323;-71
2021/09/22 01:49:05;;;;;;;21.65;9.80;;;;;;;7.29;100.00;103008.19;5219865;28;20035;-71
2021/09/22 01:51:41;;;;;;;20.77;9.40;;;;;;;7.26;100.00;103006.53;5220603;28;20391;-72
2021/09/22 01:54:12;;;;;;;15.63;8.23;;;;;;;7.24;100.00;103003.09;5219895;28;20020;-71
2021/09/22 01:56:42;;;;;;;14.25;7.55;;;;;;;7.20;100.00;103007.75;5220229;28;20426;-71
2021/09/22 01:59:13;;;;;;;17.50;7.93;;;;;;;7.14;100.00;102994.78;5217315;28;20071;-72
2021/09/22 02:01:43;;;;;;;18.45;8.25;;;;;;;7.12;100.00;102996.66;5209376;28;20021;-72
2021/09/22 02:04:14;;;;;;;18.80;8.70;;;;;;;7.09;100.00;102993.34;5188444;28;20032;-72
2021/09/22 02:06:45;;;;;;;21.08;10.18;;;;;;;7.07;100.00;102997.91;5220072;28;20017;-72
2021/09/22 02:09:15;;;;;;;21.13;10.00;;;;;;;7.03;100.00;102994.56;5206333;28;20063;-73
2021/09/22 02:11:46;;;;;;;16.63;8.27;;;;;;;7.03;100.00;102996.34;5219929;28;20357;-72
2021/09/22 02:14:17;;;;;;;19.25;8.30;;;;;;;7.06;100.00;102990.84;5214009;28;20128;-73
2021/09/22 02:16:47;;;;;;;18.35;8.23;;;;;;;7.06;100.00;102991.69;5181430;28;20021;-72
2021/09/22 02:19:18;;;;;;;15.75;9.13;;;;;;;7.04;100.00;102992.75;5199356;28;20100;-71
2021/09/22 02:21:49;;;;;;;19.95;8.98;;;;;;;7.00;100.00;102992.94;5213992;28;20538;-71
2021/09/22 02:24:19;;;;;;;18.02;9.40;;;;;;;6.98;100.00;102988.66;5211177;28;20071;-72
2021/09/22 02:26:52;;;;;;;18.67;9.45;;;;;;;6.93;100.00;102983.59;5212370;28;20170;-72
2021/09/22 02:29:22;;;;;;;18.42;8.48;;;;;;;6.89;100.00;102994.53;5210672;28;20032;-72
2021/09/22 02:31:53;;;;;;;18.13;10.13;;;;;;;6.88;100.00;102991.00;5200842;28;20475;-72
2021/09/22 02:34:23;;;;;;;18.27;9.40;;;;;;;6.87;100.00;102988.41;5211834;28;20398;-72
2021/09/22 02:36:54;;;;;;;20.10;9.52;;;;;;;6.84;100.00;102991.25;5219642;28;20035;-71
2021/09/22 02:39:24;;;;;;;20.45;10.20;;;;;;;6.80;100.00;102995.91;5206337;28;20033;-71
2021/09/22 02:41:55;;;;;;;18.60;9.60;;;;;;;6.76;100.00;102994.38;5214242;28;20017;-72
2021/09/22 02:44:25;;;;;;;20.85;9.68;;;;;;;6.73;100.00;102983.88;5204443;28;20051;-72
2021/09/22 02:46:56;;;;;;;18.58;10.13;;;;;;;6.70;100.00;102987.56;5198298;28;20032;-71
2021/09/22 02:49:27;;;;;;;22.15;10.35;;;;;;;6.68;100.00;102986.81;5214722;28;20027;-71
2021/09/22 02:51:57;;;;;;;26.23;10.48;;;;;;;6.65;100.00;102978.13;5209122;28;20506;-72
2021/09/22 02:54:28;;;;;;;19.58;10.68;;;;;;;6.62;100.00;102971.16;5201427;28;20036;-71
2021/09/22 02:56:59;;;;;;;24.00;10.18;;;;;;;6.61;100.00;102980.09;5208419;28;20125;-72
2021/09/22 02:59:29;;;;;;;20.58;10.25;;;;;;;6.62;100.00;102983.63;5203679;28;20025;-72
2021/09/22 03:02:00;;;;;;;21.90;9.50;;;;;;;6.60;100.00;102985.53;5207528;28;20057;-71
2021/09/22 03:04:30;;;;;;;22.20;10.65;;;;;;;6.58;100.00;102980.31;5218739;28;20028;-71
2021/09/22 03:07:05;;;;;;;20.95;10.48;;;;;;;6.58;100.00;102974.09;5219214;28;20029;-72
2021/09/22 03:09:35;;;;;;;23.30;10.07;;;;;;;6.56;100.00;102976.84;5206353;28;20060;-72
2021/09/22 03:12:06;;;;;;;20.05;9.18;;;;;;;6.56;100.00;102974.19;5205526;28;20534;-72
2021/09/22 03:14:36;;;;;;;18.75;9.48;;;;;;;6.55;100.00;102966.28;5211731;28;20037;-72
2021/09/22 03:17:07;;;;;;;26.13;10.55;;;;;;;6.51;100.00;102970.06;5198201;28;20044;-72
2021/09/22 03:19:37;;;;;;;14.73;8.50;;;;;;;6.47;100.00;102958.69;5212275;28;20024;-71
2021/09/22 03:22:08;;;;;;;18.05;9.88;;;;;;;6.44;100.00;102958.91;5209516;28;20102;-71
2021/09/22 03:24:38;;;;;;;18.73;9.02;;;;;;;6.41;100.00;102954.59;5211571;28;20205;-72
2021/09/22 03:27:09;;;;;;;16.60;8.73;;;;;;;6.40;100.00;102958.19;5207191;28;20025;-72
2021/09/22 03:29:39;;;;;;;11.88;6.75;;;;;;;6.39;100.00;102955.63;5222639;28;20382;-72
2021/09/22 03:32:10;;;;;;;20.95;9.32;;;;;;;6.34;100.00;102958.56;5222972;28;20068;-71
2021/09/22 03:34:40;;;;;;;18.27;10.00;;;;;;;6.31;100.00;102963.19;5209569;28;20026;-71
2021/09/22 03:37:11;;;;;;;20.38;9.57;;;;;;;6.29;100.00;102968.63;5195392;28;20029;-72
2021/09/22 03:39:42;;;;;;;18.33;9.57;;;;;;;6.28;100.00;102969.56;5215418;28;20172;-71
2021/09/22 03:42:12;;;;;;;23.30;9.40;;;;;;;6.27;100.00;102957.16;5211502;28;20025;-71
2021/09/22 03:44:43;;;;;;;18.65;9.65;;;;;;;6.27;100.00;102964.31;5218492;28;20032;-70
2021/09/22 03:47:13;;;;;;;17.83;9.18;;;;;;;6.27;100.00;102964.31;5202219;28;20047;-70
2021/09/22 03:49:44;;;;;;;16.75;9.10;;;;;;;6.28;100.00;102968.72;5207135;28;20028;-70
2021/09/22 03:52:14;;;;;;;15.32;9.30;;;;;;;6.26;100.00;102958.13;5222442;28;20032;-70
2021/09/22 03:54:45;;;;;;;14.32;8.70;;;;;;;6.25;100.00;102964.41;5209225;28;20365;-70
2021/09/22 03:57:15;;;;;;;18.20;8.75;;;;;;;6.22;100.00;102964.56;5221523;28;20025;-71
2021/09/22 03:59:46;;;;;;;20.77;9.43;;;;;;;6.20;100.00;102963.81;5209758;28;20410;-71
2021/09/22 04:02:17;;;;;;;19.50;10.57;;;;;;;6.18;100.00;102957.72;5221918;28;20029;-70
2021/09/22 04:04:47;;;;;;;18.40;9.38;;;;;;;6.16;100.00;102957.78;5213207;28;20056;-71
2021/09/22 04:07:18;;;;;;;11.23;6.45;;;;;;;6.13;100.00;102959.78;5214677;28;20429;-71
2021/09/22 04:09:48;;;;;;;13.70;6.43;;;;;;;6.11;100.00;102953.66;5212532;28;20355;-71
2021/09/22 04:12:19;;;;;;;13.18;7.82;;;;;;;6.09;100.00;102950.22;5217169;28;20132;-71
2021/09/22 04:14:49;;;;;;;13.07;7.55;;;;;;;6.08;100.00;102954.69;5213784;28;20115;-71
2021/09/22 04:17:20;;;;;;;15.90;8.02;;;;;;;6.05;100.00;102946.88;5202478;28;20495;-70
2021/09/22 04:19:51;;;;;;;14.25;7.32;;;;;;;6.07;100.00;102954.75;5201284;28;20021;-70
2021/09/22 04:22:21;;;;;;;17.92;9.55;;;;;;;6.11;100.00;102951.00;5214581;28;20021;-70
2021/09/22 04:24:52;;;;;;;18.58;8.82;;;;;;;6.08;100.00;102946.72;5214364;28;20109;-70
2021/09/22 04:27:22;;;;;;;13.85;8.55;;;;;;;6.06;100.00;102950.38;5208459;28;20032;-70
2021/09/22 04:29:53;;;;;;;21.02;9.50;;;;;;;6.01;100.00;102947.97;5221446;28;20025;-70
2021/09/22 04:32:24;;;;;;;20.05;9.85;;;;;;;5.99;100.00;102946.34;5221787;28;20021;-70
2021/09/22 04:34:54;;;;;;;20.23;9.30;;;;;;;5.93;100.00;102937.75;5218426;28;20029;-70
2021/09/22 04:37:28;;;;;;;19.65;9.60;;;;;;;5.92;100.00;102945.81;5200507;28;20029;-70
2021/09/22 04:39:58;;;;;;;22.08;9.60;;;;;;;5.90;100.00;102937.03;5205898;28;20379;-70
2021/09/22 04:42:29;;;;;;;18.55;9.73;;;;;;;5.87;100.00;102931.84;5209109;28;20028;-70
2021/09/22 04:45:00;;;;;;;20.08;9.65;;;;;;;5.84;100.00;102932.91;5220229;28;20135;-70
2021/09/22 04:47:31;;;;;;;18.65;9.45;;;;;;;5.83;100.00;102928.53;5207833;28;20406;-70
2021/09/22 04:50:03;;;;;;;21.65;9.48;;;;;;;5.81;100.00;102929.53;5213540;28;20018;-71
2021/09/22 04:52:34;;;;;;;15.98;9.38;;;;;;;5.78;100.00;102927.94;5215496;28;20096;-71
2021/09/22 04:55:05;;;;;;;22.60;11.55;;;;;;;5.78;100.00;102938.59;5212804;28;20164;-71
2021/09/22 04:57:36;;;;;;;15.18;8.93;;;;;;;5.75;100.00;102933.41;5200657;28;20032;-71
2021/09/22 05:00:08;;;;;;;22.45;8.93;;;;;;;5.72;100.00;102937.13;5210264;28;20389;-71
2021/09/22 05:02:40;;;;;;;24.83;10.43;;;;;;;5.71;100.00;102945.16;5207151;28;20033;-72
2021/09/22 05:05:10;;;;;;;19.75;10.05;;;;;;;5.69;100.00;102944.41;5209974;28;20026;-71
2021/09/22 05:07:41;;;;;;;21.10;10.20;;;;;;;5.67;100.00;102946.28;5205287;28;20090;-71
2021/09/22 05:10:12;;;;;;;20.35;9.43;;;;;;;5.64;100.00;102952.63;5220914;28;20381;-71
2021/09/22 05:12:42;;;;;;;17.67;8.48;;;;;;;5.60;100.00;102951.06;5200830;28;20087;-71
2021/09/22 05:15:13;;;;;;;16.10;8.20;;;;;;;5.57;100.00;102958.34;5213789;28;20155;-71
2021/09/22 05:17:43;;;;;;;19.40;9.68;;;;;;;5.55;100.00;102955.78;5207828;28;20033;-71
2021/09/22 05:20:14;;;;;;;22.30;9.98;;;;;;;5.56;100.00;102953.97;5207442;28;20022;-71
2021/09/22 05:22:44;;;;;;;22.70;11.43;;;;;;;5.57;100.00;102958.34;5220598;28;20493;-70
2021/09/22 05:25:15;;;;;;;21.60;10.07;;;;;;;5.57;100.00;102953.94;5207051;28;20025;-70
2021/09/22 05:27:46;;;;;;;19.88;10.20;;;;;;;5.58;100.00;102954.78;5210889;28;20420;-70
2021/09/22 05:30:18;;;;;;;24.10;9.95;;;;;;;5.58;100.00;102960.97;5218817;28;20025;-70
2021/09/22 05:32:48;;;;;;;16.95;9.82;;;;;;;5.57;100.00;102959.25;5220655;28;20028;-71
2021/09/22 05:35:19;;;;;;;20.92;10.73;;;;;;;5.56;100.00;102956.66;5207138;28;20025;-71
2021/09/22 05:37:49;;;;;;;19.15;9.95;;;;;;;5.55;100.00;102954.94;5206386;28;20092;-71
2021/09/22 05:40:20;;;;;;;15.73;8.98;;;;;;;5.55;100.00;102963.78;5220766;28;20033;-72
2021/09/22 05:42:51;;;;;;;14.88;8.43;;;;;;;5.57;100.00;102971.69;5206866;28;20041;-71
2021/09/22 05:45:21;;;;;;;24.75;11.05;;;;;;;5.59;100.00;102970.66;5210724;28;20089;-71
2021/09/22 05:47:52;;;;;;;23.00;11.20;;;;;;;5.60;100.00;102975.03;5216489;28;20086;-71
2021/09/22 05:50:23;;;;;;;20.65;10.38;;;;;;;5.62;100.00;102966.97;5209021;28;20022;-71
2021/09/22 05:52:53;;;;;;;20.85;10.18;;;;;;;5.64;100.00;102970.41;5199689;28;20082;-71
2021/09/22 05:55:24;;;;;;;20.52;9.60;;;;;;;5.68;100.00;102961.31;5212201;28;20017;-71
2021/09/22 05:57:54;;;;;;;19.30;9.02;;;;;;;5.75;100.00;102965.38;5206510;28;20120;-71
2021/09/22 06:00:25;;;;;;;18.42;9.15;;;;;;;5.82;100.00;102968.53;5206777;28;20093;-71
2021/09/22 06:02:55;;;;;;;21.15;9.45;;;;;;;5.87;100.00;102971.81;5212357;28;20083;-71
2021/09/22 06:05:26;;;;;;;18.17;8.23;;;;;;;5.91;100.00;102968.94;5195107;28;20021;-71
2021/09/22 06:07:56;;;;;;;17.35;8.65;;;;;;;5.99;100.00;102978.34;5199263;28;20096;-71
2021/09/22 06:10:27;;;;;;;20.38;10.32;;;;;;;6.09;100.00;102972.41;5199102;28;20422;-70
2021/09/22 06:12:57;;;;;;;20.58;8.48;;;;;;;6.22;100.00;102975.22;5199326;28;20029;-70
2021/09/22 06:15:28;;;;;;;17.45;9.57;;;;;;;6.39;100.00;102983.16;5202618;28;20558;-71
2021/09/22 06:17:59;;;;;;;12.98;7.13;;;;;;;6.57;100.00;102985.69;5208699;28;20025;-71
2021/09/22 06:20:29;;;;;;;9.75;5.85;;;;;;;6.71;100.00;102977.75;5199370;28;20471;-70
2021/09/22 06:23:00;;;;;;;11.30;6.63;;;;;;;6.91;100.00;102976.59;5199626;28;20104;-70
2021/09/22 06:25:31;;;;;;;14.80;6.45;;;;;;;7.20;100.00;102978.41;5205160;28;20024;-70
2021/09/22 06:28:02;;;;;;;10.07;6.25;;;;;;;7.52;100.00;102979.09;5206166;28;20487;-70
2021/09/22 06:30:33;;;;;;;11.50;6.40;;;;;;;7.81;100.00;102980.91;5219365;28;20033;-70
2021/09/22 06:33:03;;;;;;;10.52;6.85;;;;;;;8.02;100.00;102985.75;5204688;28;20061;-70
2021/09/22 06:35:34;;;;;;;12.85;6.78;;;;;;;8.16;100.00;102973.34;5198606;28;20505;-70
2021/09/22 06:38:05;;;;;;;15.13;7.15;;;;;;;8.28;100.00;102980.53;5218197;28;20021;-70
2021/09/22 06:40:36;;;;;;;12.52;6.72;;;;;;;8.42;100.00;102977.03;5208814;28;20026;-70
2021/09/22 06:43:07;;;;;;;10.73;6.22;;;;;;;8.52;100.00;102975.47;5205371;28;20028;-70
2021/09/22 06:45:38;;;;;;;18.45;9.55;;;;;;;8.69;100.00;102983.25;5206902;28;20033;-70
2021/09/22 06:48:08;;;;;;;18.48;8.95;;;;;;;8.93;100.00;102988.75;5186272;28;20040;-70
2021/09/22 06:50:39;;;;;;;17.27;9.73;;;;;;;9.15;100.00;102981.97;5207968;28;20032;-70
2021/09/22 06:53:09;;;;;;;15.38;9.35;;;;;;;9.30;100.00;102988.94;5215578;28;20545;-70
2021/09/22 06:55:40;;;;;;;15.90;9.65;;;;;;;9.46;100.00;102986.03;5215391;28;20033;-70
2021/09/22 06:58:10;;;;;;;15.93;8.63;;;;;;;9.71;100.00;102983.34;5202616;28;20238;-71
2021/09/22 07:00:41;;;;;;;17.67;8.25;;;;;;;9.93;100.00;102984.50;5216630;28;20028;-71
2021/09/22 07:03:14;;;;;;;15.32;8.05;;;;;;;10.17;100.00;102989.94;5222162;28;20032;-71
2021/09/22 07:05:44;;;;;;;12.65;7.75;;;;;;;10.35;100.00;102985.94;5206005;28;20032;-71
2021/09/22 07:08:15;;;;;;;12.25;7.80;;;;;;;10.51;100.00;102993.72;5201914;28;20029;-70
2021/09/22 07:10:46;;;;;;;17.13;8.65;;;;;;;10.72;100.00;102993.94;5201114;28;20022;-71
2021/09/22 07:13:17;;;;;;;14.32;7.72;;;;;;;10.83;100.00;102994.84;5201747;28;20037;-71
2021/09/22 07:15:47;;;;;;;12.02;7.15;;;;;;;11.07;100.00;102994.81;5214406;28;20017;-70
2021/09/22 07:18:19;;;;;;;10.93;7.10;;;;;;;11.43;100.00;102987.56;5201462;28;20025;-71
2021/09/22 07:20:50;;;;;;;10.65;7.13;;;;;;;11.83;100.00;103001.44;5201095;28;20217;-70
2021/09/22 07:23:20;;;;;;;14.45;7.32;;;;;;;12.12;100.00;103004.47;5201651;28;20258;-71
2021/09/22 07:25:51;;;;;;;18.23;7.80;;;;;;;12.32;100.00;102989.41;5201676;28;20029;-71
2021/09/22 07:28:21;;;;;;;22.38;8.27;;;;;;;12.56;100.00;102994.63;5216629;28;20025;-71
2021/09/22 07:30:52;;;;;;;14.18;7.15;;;;;;;12.93;100.00;102992.38;5221356;28;20425;-71
2021/09/22 07:33:23;;;;;;;19.30;8.98;;;;;;;13.27;100.00;102991.38;5217806;28;20641;-71
2021/09/22 07:35:55;;;;;;;11.90;7.68;;;;;;;13.52;100.00;102995.50;5201075;28;20029;-71
2021/09/22 07:38:26;;;;;;;18.30;8.52;;;;;;;13.96;100.00;102995.16;5214620;28;20021;-71
2021/09/22 07:40:58;;;;;;;15.98;8.13;;;;;;;14.31;100.00;102998.34;5204141;28;20070;-71
2021/09/22 07:43:29;;;;;;;14.80;8.48;;;;;;;14.58;100.00;102992.34;5196275;28;20021;-71
2021/09/22 07:46:00;;;;;;;16.02;7.95;;;;;;;14.70;100.00;102994.75;5214332;28;20033;-71
2021/09/22 07:48:31;;;;;;;14.45;8.32;;;;;;;14.33;100.00;102991.00;5210662;28;20021;-71
2021/09/22 07:51:03;;;;;;;17.92;8.30;;;;;;;14.83;100.00;102991.78;5217584;28;20036;-71
2021/09/22 07:53:33;;;;;;;16.50;8.23;;;;;;;14.95;100.00;102995.19;5211703;28;20017;-71
2021/09/22 07:56:05;;;;;;;15.75;8.57;;;;;;;15.15;100.00;102998.72;5203131;28;20033;-71
2021/09/22 07:58:35;;;;;;;14.23;8.80;;;;;;;15.20;100.00;103001.84;5213933;28;20478;-71
2021/09/22 08:01:06;;;;;;;19.33;9.27;;;;;;;15.14;100.00;102997.03;5213181;28;20036;-71
2021/09/22 08:03:36;;;;;;;16.20;9.52;;;;;;;15.07;100.00;102999.47;5200555;28;20034;-71
2021/09/22 08:06:07;;;;;;;22.23;11.05;;;;;;;15.26;100.00;103001.28;5213900;28;20116;-71
2021/09/22 08:08:37;;;;;;;20.00;11.85;;;;;;;15.33;100.00;102998.88;5202394;28;20327;-71
2021/09/22 08:11:08;;;;;;;21.83;12.50;;;;;;;15.39;100.00;103000.97;5211300;28;20491;-71
2021/09/22 08:13:39;;;;;;;22.58;12.05;;;;;;;15.55;100.00;103007.47;5203163;28;20028;-71
2021/09/22 08:16:10;;;;;;;24.17;12.40;;;;;;;15.72;100.00;103014.03;5210768;28;20144;-71
2021/09/22 08:18:45;;;;;;;22.40;11.65;;;;;;;15.90;100.00;103015.94;5204236;28;20032;-71
2021/09/22 08:21:16;;;;;;;22.85;12.43;;;;;;;15.96;100.00;103016.19;5208897;28;20361;-71
2021/09/22 08:23:46;;;;;;;22.90;12.38;;;;;;;16.07;100.00;103009.75;5219165;28;20029;-71
2021/09/22 08:26:17;;;;;;;20.73;11.30;;;;;;;16.13;100.00;103011.84;5208213;28;20053;-71
2021/09/22 08:28:47;;;;;;;19.60;10.98;;;;;;;16.12;100.00;103002.03;5206624;28;20040;-71
2021/09/22 08:31:18;;;;;;;22.58;12.32;;;;;;;16.21;100.00;103006.53;5220443;28;20025;-72
2021/09/22 08:33:48;;;;;;;20.92;11.60;;;;;;;16.30;100.00;103007.47;5220640;28;20108;-71
2021/09/22 08:36:19;;;;;;;20.90;12.43;;;;;;;16.44;100.00;103004.25;5220801;28;20025;-71
2021/09/22 08:38:51;;;;;;;23.40;11.93;;;;;;;16.56;100.00;103002.16;5220721;28;20433;-71
2021/09/22 08:41:21;;;;;;;21.98;12.55;;;;;;;16.72;100.00;103004.25;5190499;28;20093;-72
2021/09/22 08:43:53;;;;;;;24.90;13.55;;;;;;;16.58;100.00;102992.06;5208285;28;20112;-72
2021/09/22 08:46:23;;;;;;;19.23;11.75;;;;;;;16.70;100.00;102995.38;5213018;28;20033;-73
2021/09/22 08:48:54;;;;;;;26.10;12.57;;;;;;;16.72;100.00;102998.84;5200222;28;20071;-72
2021/09/22 08:51:24;;;;;;;21.35;11.68;;;;;;;16.89;100.00;103003.38;5204930;28;20021;-72
2021/09/22 08:53:56;;;;;;;18.35;12.07;;;;;;;17.06;100.00;102994.38;5219829;28;20033;-72
2021/09/22 08:56:27;;;;;;;18.17;11.25;;;;;;;17.32;100.00;102994.44;5220177;28;20090;-72
2021/09/22 08:58:57;;;;;;;20.08;11.30;;;;;;;17.33;100.00;102987.97;5207182;28;20068;-72
2021/09/22 09:01:28;;;;;;;24.85;12.90;;;;;;;17.62;100.00;102986.81;5219982;28;20056;-72
2021/09/22 09:04:13;;;;;;;22.00;12.45;;;;;;;17.68;100.00;102993.47;5220046;28;20124;-72
2021/09/22 09:06:44;;;;;;;23.75;12.40;;;;;;;17.85;100.00;103001.53;5219975;28;20296;-70
2021/09/22 09:09:14;;;;;;;22.48;12.43;;;;;;;18.03;100.00;102997.91;5200850;28;20068;-72
2021/09/22 09:11:45;;;;;;;22.88;11.80;;;;;;;18.22;100.00;103000.31;5199255;28;20112;-72
2021/09/22 09:14:16;;;;;;;22.65;11.63;;;;;;;18.47;100.00;102997.69;5212444;28;20036;-72
2021/09/22 09:16:49;;;;;;;20.63;11.98;;;;;;;18.49;100.00;102999.22;5211837;28;20367;-72
2021/09/22 09:19:21;;;;;;;23.23;12.20;;;;;;;18.46;100.00;102998.72;5208072;28;20025;-72
2021/09/22 09:21:55;;;;;;;23.02;12.05;;;;;;;18.65;100.00;102998.41;5219159;28;20024;-72
2021/09/22 09:24:47;;;;;;;20.77;11.68;;;;;;;18.92;100.00;103004.56;5209412;28;20040;-72
2021/09/22 09:27:18;;;;;;;21.23;11.27;;;;;;;19.33;100.00;103000.00;5206408;28;20441;-72
2021/09/22 09:29:54;;;;;;;17.80;9.95;;;;;;;19.63;100.00;103006.59;5220342;28;20112;-72
2021/09/22 09:32:28;;;;;;;17.40;9.80;;;;;;;19.81;100.00;103001.78;5219880;28;20017;-72
2021/09/22 09:35:18;;;;;;;24.20;10.07;;;;;;;19.74;100.00;103002.66;5219565;28;20028;-72
2021/09/22 09:37:51;;;;;;;18.48;10.48;;;;;;;19.85;100.00;102997.66;5218119;28;20024;-72
2021/09/22 09:40:22;;;;;;;18.23;10.30;;;;;;;19.92;100.00;102997.81;5207428;28;20017;-72
2021/09/22 09:42:57;;;;;;;19.38;9.05;;;;;;;19.72;100.00;102997.38;5202801;28;20504;-70
2021/09/22 09:45:35;;;;;;;;;;;;;;;19.85;100.00;102992.22;5199191;28;20033;-70
2021/09/22 09:48:06;;;;;;;16.65;9.60;;;;;;;20.11;100.00;102988.38;5217391;28;19931;-73
2021/09/22 09:50:43;;;;;;;19.80;9.48;;;;;;;20.28;100.00;102986.41;5205818;28;20378;-72
2021/09/22 09:53:24;;;;;;;;;;;;;;;20.37;100.00;102990.78;5219678;28;20155;-72
2021/09/22 09:55:57;;;;;;;14.20;8.77;;;;;;;20.46;100.00;102988.88;5219140;28;19915;-73
2021/09/22 09:58:40;;;;;;;16.73;9.43;;;;;;;20.57;100.00;102981.13;5208139;28;20552;-72
2021/09/22 10:01:11;;;;;;;16.70;7.55;;;;;;;20.43;95.39;102981.88;5211091;28;20490;-72
2021/09/22 10:03:42;;;;;;;15.60;8.32;;;;;;;20.37;88.44;102988.91;5212586;28;20033;-73
2021/09/22 10:06:13;;;;;;;17.08;9.00;;;;;;;20.56;90.50;102974.00;5211291;28;20037;-72
2021/09/22 10:08:44;;;;;;;14.82;7.63;;;;;;;20.70;81.69;102969.66;5211680;28;20031;-72
2021/09/22 10:11:15;;;;;;;15.57;9.00;;;;;;;20.62;94.03;102969.69;5198267;28;20021;-73
2021/09/22 10:13:46;;;;;;;16.35;9.65;;;;;;;20.39;80.11;102969.66;5214642;28;20040;-73
2021/09/22 10:16:18;;;;;;;17.23;9.02;;;;;;;20.15;90.70;102976.09;5201595;28;20466;-73
2021/09/22 10:18:49;;;;;;;17.85;8.50;;;;;;;20.29;98.87;102969.03;5214311;28;20033;-73
2021/09/22 10:21:20;;;;;;;14.40;8.88;;;;;;;20.21;78.14;102967.19;5210642;28;20056;-73
2021/09/22 10:23:53;;;;;;;16.38;9.02;;;;;;;20.43;82.13;102957.34;5211403;28;20450;-73
2021/09/22 10:26:26;;;;;;;24.67;10.48;;;;;;;20.67;71.47;102956.34;5211820;28;20390;-73
2021/09/22 10:29:00;;;;;;;15.95;8.95;;;;;;;20.40;79.92;102947.66;5206081;28;20043;-74
2021/09/22 10:31:30;;;;;;;15.68;8.70;;;;;;;20.54;84.74;102948.81;5204677;28;20032;-73
2021/09/22 10:34:02;;;;;;;16.25;9.10;;;;;;;20.63;76.40;102952.28;5209358;28;20487;-73
2021/09/22 10:36:41;;;;;;;16.88;9.52;;;;;;;20.44;80.48;102949.00;5201519;28;20033;-73
2021/09/22 10:39:26;;;;;;;19.30;8.68;;;;;;;20.60;80.07;102948.06;5189352;28;20075;-73
2021/09/22 10:41:57;;;;;;;15.73;8.45;;;;;;;20.75;78.68;102937.22;5197411;28;20108;-73
2021/09/22 10:44:32;;;;;;;16.77;8.82;;;;;;;20.72;70.49;102944.91;5199834;28;20109;-73
2021/09/22 10:47:22;;;;;;;;;;;;;;;20.80;70.79;102948.41;5219161;28;20029;-73
2021/09/22 10:49:53;;;;;;;18.13;9.73;;;;;;;20.91;75.62;102938.94;5212269;28;20284;-73
2021/09/22 10:52:35;;;;;;;17.40;9.10;;;;;;;20.64;72.73;102943.09;5211237;28;20064;-73
2021/09/22 10:55:08;;;;;;;14.98;8.40;;;;;;;20.72;83.05;102934.84;5209646;28;20057;-73
2021/09/22 10:57:39;;;;;;;18.83;9.35;;;;;;;20.57;75.59;102925.75;5198219;28;20025;-73
2021/09/22 11:00:11;;;;;;;16.58;9.52;;;;;;;20.42;70.25;102925.66;5209302;28;20047;-73
2021/09/22 11:02:47;;;;;;;20.58;9.63;;;;;;;20.33;70.35;102924.91;5204688;28;20244;-73
2021/09/22 11:05:26;;;;;;;20.92;9.77;;;;;;;20.48;70.72;102918.66;5205021;28;20066;-73
2021/09/22 11:08:03;;;;;;;18.83;9.63;;;;;;;20.75;70.07;102920.00;5218491;28;20116;-72
2021/09/22 11:10:35;;;;;;;16.95;9.20;;;;;;;20.89;77.16;102916.47;5201444;28;20083;-73
2021/09/22 11:13:19;;;;;;;18.00;8.77;;;;;;;20.64;84.11;102916.69;5197686;28;20425;-73
2021/09/22 11:15:51;;;;;;;20.13;9.50;;;;;;;20.90;83.35;102915.44;5211298;28;20095;-73
2021/09/22 11:18:23;;;;;;;21.88;10.85;;;;;;;21.08;66.80;102905.00;5211507;28;20104;-72
2021/09/22 11:20:56;;;;;;;19.10;9.85;;;;;;;21.37;78.06;102904.22;5200121;28;20025;-73
2021/09/22 11:23:29;;;;;;;16.58;8.77;;;;;;;20.92;79.37;102895.09;5202407;28;20029;-73
2021/09/22 11:26:08;;;;;;;18.38;8.50;;;;;;;21.02;71.63;102892.09;5197696;28;20253;-73
2021/09/22 11:28:48;;;;;;;19.05;9.18;;;;;;;20.92;79.41;102897.84;5216028;28;20333;-73
2021/09/22 11:31:21;;;;;;;17.85;9.40;;;;;;;20.92;73.50;102888.81;5204777;28;20029;-73
2021/09/22 11:33:57;;;;;;;15.70;9.43;;;;;;;20.97;73.38;102896.44;5209623;28;20029;-73